Time;durP1;ratioP1;P1;durP2;ratioP2;P2;SDS_P1;SDS_P2;PMS_P1;PMS_P2;Temp;Humidity;BMP_temperature;BMP_pressure;BME280_temperature;BME280_humidity;BME280_pressure;Samples;Min_cycle;Max_cycle;Signal;HPM_P1;HPM_P2
2021/07/18 05:34:53;;;;;;;18.98;14.30;;;26.50;73.80;;;;;;4978750;28;20122;-40
2021/07/18 05:37:19;;;;;;;20.90;14.40;;;26.50;73.70;;;;;;4978754;28;20117;-40
2021/07/18 05:39:45;;;;;;;20.77;14.77;;;26.60;73.90;;;;;;4978292;28;20330;-40
2021/07/18 05:42:11;;;;;;;17.75;14.10;;;26.60;73.50;;;;;;4978347;28;20363;-41
2021/07/18 05:44:36;;;;;;;18.33;14.15;;;26.80;73.50;;;;;;4978047;28;20074;-41
2021/07/18 05:47:02;;;;;;;16.23;12.77;;;26.80;73.00;;;;;;4971254;28;20046;-41
2021/07/18 05:49:28;;;;;;;23.35;14.23;;;26.90;72.90;;;;;;4969710;28;20407;-36
2021/07/18 05:51:54;;;;;;;18.58;14.32;;;27.00;71.90;;;;;;4970912;28;20031;-36
2021/07/18 05:54:19;;;;;;;15.52;12.60;;;27.10;72.50;;;;;;4965297;28;20314;-37
2021/07/18 05:56:45;;;;;;;15.43;13.20;;;27.10;72.30;;;;;;4978228;28;20030;-37
2021/07/18 05:59:11;;;;;;;15.80;12.48;;;27.20;72.00;;;;;;4978225;28;20383;-36
2021/07/18 06:01:36;;;;;;;14.73;12.95;;;27.30;72.00;;;;;;4970702;28;20375;-41
2021/07/18 06:04:02;;;;;;;16.40;12.85;;;27.40;71.50;;;;;;4969606;28;20030;-41
2021/07/18 06:06:28;;;;;;;18.75;13.43;;;27.40;71.60;;;;;;4968638;28;20031;-41
2021/07/18 06:08:53;;;;;;;19.23;14.07;;;27.50;70.80;;;;;;4977402;28;20039;-41
2021/07/18 06:11:19;;;;;;;15.48;13.63;;;27.60;71.20;;;;;;4974718;28;20093;-36
2021/07/18 06:13:45;;;;;;;15.63;12.63;;;27.60;71.20;;;;;;4977974;28;20031;-37
2021/07/18 06:16:10;;;;;;;18.02;12.27;;;27.70;71.60;;;;;;4972078;28;20434;-41
2021/07/18 06:18:36;;;;;;;25.02;14.70;;;27.80;71.20;;;;;;4972690;28;20031;-37
2021/07/18 06:21:02;;;;;;;17.65;14.00;;;27.80;71.40;;;;;;4977467;28;20053;-36
2021/07/18 06:23:28;;;;;;;17.35;14.20;;;27.90;71.40;;;;;;4971852;28;20355;-36
2021/07/18 06:25:54;;;;;;;14.52;12.60;;;28.00;71.20;;;;;;4977180;28;20034;-41
2021/07/18 06:28:20;;;;;;;15.35;12.88;;;28.00;70.90;;;;;;4965744;28;20093;-36
2021/07/18 06:30:45;;;;;;;15.95;13.52;;;28.10;71.00;;;;;;4971798;28;20115;-40
2021/07/18 06:33:11;;;;;;;14.68;11.98;;;28.10;70.90;;;;;;4990905;28;20426;-41
2021/07/18 06:35:37;;;;;;;14.88;12.75;;;28.20;70.90;;;;;;5010502;28;20612;-41
2021/07/18 06:38:04;;;;;;;16.70;12.85;;;28.30;71.20;;;;;;5012773;28;20137;-36
2021/07/18 06:40:30;;;;;;;15.40;13.80;;;28.40;70.70;;;;;;5005579;28;20040;-36
2021/07/18 06:42:56;;;;;;;17.40;13.38;;;28.40;70.90;;;;;;5009305;28;20034;-36
2021/07/18 06:45:21;;;;;;;16.13;12.07;;;28.40;70.30;;;;;;5011498;28;20318;-41
2021/07/18 06:47:47;;;;;;;17.05;12.70;;;28.50;69.60;;;;;;4998821;28;20025;-41
2021/07/18 06:50:14;;;;;;;20.95;14.73;;;28.60;69.80;;;;;;5016068;28;20041;-41
2021/07/18 06:52:40;;;;;;;18.35;13.73;;;28.60;70.10;;;;;;5016404;28;20357;-36
2021/07/18 06:55:07;;;;;;;15.93;13.30;;;28.70;70.30;;;;;;5014717;28;20037;-41
2021/07/18 06:57:33;;;;;;;18.70;12.73;;;28.70;70.50;;;;;;5007069;28;20125;-40
2021/07/18 06:59:58;;;;;;;16.10;12.57;;;28.70;69.90;;;;;;4996032;28;20121;-40
2021/07/18 07:02:24;;;;;;;15.52;12.65;;;28.80;69.60;;;;;;5006545;28;20026;-36
2021/07/18 07:04:50;;;;;;;17.92;13.27;;;28.80;69.70;;;;;;4996413;28;20034;-36
2021/07/18 07:07:15;;;;;;;18.10;13.35;;;28.80;69.60;;;;;;5001102;28;20034;-36
2021/07/18 07:09:41;;;;;;;20.90;14.73;;;28.90;69.60;;;;;;5012083;28;20026;-36
2021/07/18 07:12:07;;;;;;;15.57;13.50;;;28.90;69.90;;;;;;5015994;28;20120;-40
2021/07/18 07:14:33;;;;;;;16.80;12.82;;;29.00;69.70;;;;;;5015301;28;20037;-37
2021/07/18 07:16:59;;;;;;;15.73;12.23;;;29.00;69.60;;;;;;5014926;28;20438;-36
2021/07/18 07:19:24;;;;;;;13.43;12.02;;;29.00;69.90;;;;;;5007814;28;20041;-36
2021/07/18 07:21:50;;;;;;;15.32;12.52;;;29.10;69.90;;;;;;5011948;28;20055;-41
2021/07/18 07:24:16;;;;;;;15.95;12.85;;;29.10;69.10;;;;;;5015252;28;20330;-41
2021/07/18 07:26:41;;;;;;;17.67;12.73;;;29.10;69.20;;;;;;5013867;28;20026;-41
2021/07/18 07:29:07;;;;;;;15.38;12.20;;;29.20;69.80;;;;;;5009962;28;20030;-36
2021/07/18 07:31:33;;;;;;;15.52;12.95;;;29.20;69.00;;;;;;5014621;28;20435;-37
2021/07/18 07:33:58;;;;;;;15.55;12.10;;;29.20;68.90;;;;;;5015093;28;20065;-37
2021/07/18 07:36:24;;;;;;;13.30;11.88;;;29.20;69.00;;;;;;5008979;28;20037;-36
2021/07/18 07:38:50;;;;;;;14.45;11.30;;;29.30;68.70;;;;;;5014062;28;20318;-37
2021/07/18 07:41:16;;;;;;;13.82;11.13;;;29.30;68.20;;;;;;5004481;28;20041;-37
2021/07/18 07:43:42;;;;;;;16.10;11.52;;;29.40;67.70;;;;;;5010450;28;20052;-37
2021/07/18 07:46:08;;;;;;;13.27;10.90;;;29.40;67.50;;;;;;5015463;28;20053;-37
2021/07/18 07:48:34;;;;;;;14.75;11.25;;;29.40;67.50;;;;;;5015467;28;20113;-37
2021/07/18 07:51:02;;;;;;;17.00;11.82;;;29.50;67.20;;;;;;5007032;28;20038;-37
2021/07/18 07:53:27;;;;;;;11.50;10.40;;;29.50;66.70;;;;;;5005513;28;20060;-37
2021/07/18 07:55:53;;;;;;;19.25;11.00;;;29.50;66.30;;;;;;5015402;28;20425;-37
2021/07/18 07:58:19;;;;;;;13.50;10.25;;;29.60;66.90;;;;;;5014848;28;20330;-45
2021/07/18 08:00:45;;;;;;;14.18;10.80;;;29.60;66.60;;;;;;5015142;28;20030;-41
2021/07/18 08:03:11;;;;;;;14.05;11.25;;;29.60;66.00;;;;;;5015374;28;20054;-41
2021/07/18 08:05:37;;;;;;;13.93;10.57;;;29.70;65.40;;;;;;5007544;28;20351;-42
2021/07/18 08:08:05;;;;;;;10.68;9.57;;;29.70;65.10;;;;;;5008774;28;20057;-41
2021/07/18 08:10:31;;;;;;;11.77;10.15;;;29.70;64.20;;;;;;5006443;28;20038;-41
2021/07/18 08:12:57;;;;;;;11.10;9.43;;;29.70;64.00;;;;;;5011832;28;20382;-41
2021/07/18 08:15:23;;;;;;;12.35;9.35;;;29.80;64.10;;;;;;5003376;28;20031;-41
2021/07/18 08:17:51;;;;;;;9.85;8.85;;;29.80;63.50;;;;;;5004288;28;20046;-41
2021/07/18 08:20:22;;;;;;;10.23;8.70;;;29.80;62.60;;;;;;5003982;28;20073;-41
2021/07/18 08:22:50;;;;;;;9.13;8.20;;;29.90;62.70;;;;;;5015561;28;20291;-41
2021/07/18 08:25:18;;;;;;;13.43;8.55;;;29.90;62.40;;;;;;5014836;28;20064;-37
2021/07/18 08:27:45;;;;;;;8.68;7.78;;;29.90;62.10;;;;;;5015165;28;20034;-37
2021/07/18 08:30:12;;;;;;;8.93;7.55;;;30.00;61.50;;;;;;5013703;28;20030;-37
2021/07/18 08:32:38;;;;;;;9.45;7.28;;;30.00;61.70;;;;;;5008414;28;20335;-41
2021/07/18 08:35:05;;;;;;;12.10;9.93;;;30.00;61.10;;;;;;5006135;28;20050;-41
2021/07/18 08:37:31;;;;;;;12.25;8.57;;;30.00;61.20;;;;;;5015678;28;20095;-37
2021/07/18 08:39:57;;;;;;;10.93;8.25;;;30.10;61.50;;;;;;5017757;28;20350;-37
2021/07/18 08:42:24;;;;;;;8.80;7.88;;;30.10;60.90;;;;;;5011357;28;20105;-37
2021/07/18 08:44:50;;;;;;;8.55;6.97;;;30.20;61.30;;;;;;5015466;28;20030;-41
2021/07/18 08:47:17;;;;;;;13.68;7.88;;;30.30;60.00;;;;;;5018067;28;20028;-41
2021/07/18 08:49:44;;;;;;;8.45;7.20;;;30.30;59.20;;;;;;5017918;28;20442;-41
2021/07/18 08:52:10;;;;;;;7.50;6.65;;;30.40;59.90;;;;;;5018400;28;20121;-40
2021/07/18 08:54:37;;;;;;;11.77;7.72;;;30.40;59.20;;;;;;5017938;28;20056;-41
2021/07/18 08:57:03;;;;;;;8.25;7.25;;;30.40;57.80;;;;;;5017766;28;20022;-41
2021/07/18 08:59:31;;;;;;;12.63;6.85;;;30.50;58.00;;;;;;5010964;28;20025;-41
2021/07/18 09:01:57;;;;;;;12.73;7.80;;;30.50;57.60;;;;;;5001606;28;20092;-41
2021/07/18 09:04:23;;;;;;;13.70;7.90;;;30.60;57.90;;;;;;5014571;28;20038;-41
2021/07/18 09:06:50;;;;;;;7.45;6.75;;;30.60;57.30;;;;;;5008193;28;20406;-41
2021/07/18 09:09:21;;;;;;;9.18;7.30;;;30.70;57.50;;;;;;5009560;28;20030;-37
2021/07/18 09:11:58;;;;;;;8.90;7.00;;;30.80;57.50;;;;;;5018245;28;20474;-36
2021/07/18 09:14:24;;;;;;;12.82;7.50;;;30.80;56.20;;;;;;5017399;28;20037;-41
2021/07/18 09:16:51;;;;;;;8.77;7.40;;;30.90;56.30;;;;;;5015661;28;20067;-36
2021/07/18 09:19:24;;;;;;;9.80;7.45;;;30.90;56.30;;;;;;5001836;28;20035;-37
2021/07/18 09:21:55;;;;;;;9.68;8.00;;;30.90;56.70;;;;;;5002142;28;20578;-36
2021/07/18 09:24:23;;;;;;;14.00;8.50;;;31.00;56.80;;;;;;5006256;28;20029;-41
2021/07/18 09:27:08;;;;;;;9.30;7.93;;;31.10;56.80;;;;;;5017963;28;20050;-36
2021/07/18 09:29:35;;;;;;;10.25;8.13;;;31.10;57.20;;;;;;5017492;28;20087;-36
2021/07/18 09:32:03;;;;;;;8.55;7.63;;;31.20;56.90;;;;;;5008749;28;20030;-41
2021/07/18 09:34:46;;;;;;;8.00;7.20;;;31.20;56.90;;;;;;5013668;28;20327;-37
2021/07/18 09:37:14;;;;;;;8.80;7.93;;;31.30;56.80;;;;;;5011177;28;20030;-36
2021/07/18 09:39:45;;;;;;;10.05;7.88;;;31.30;56.60;;;;;;5012400;28;20430;-41
2021/07/18 09:42:36;;;;;;;11.02;7.22;;;31.30;55.50;;;;;;5010273;28;20109;-41
2021/07/18 09:45:14;;;;;;;9.38;7.38;;;31.40;56.20;;;;;;5008245;28;20026;-37
2021/07/18 09:48:03;;;;;;;8.27;7.47;;;31.40;56.20;;;;;;5008529;28;20477;-36
2021/07/18 09:50:37;;;;;;;8.38;7.22;;;31.50;56.30;;;;;;4997816;28;20426;-41
2021/07/18 09:53:16;;;;;;;8.18;7.00;;;31.50;55.90;;;;;;5009228;28;20036;-41
2021/07/18 09:56:00;;;;;;;8.45;7.53;;;31.50;55.30;;;;;;5006827;28;20049;-41
2021/07/18 09:58:27;;;;;;;11.00;7.43;;;31.60;55.20;;;;;;5010345;28;20048;-41
2021/07/18 10:00:54;;;;;;;9.80;8.07;;;31.60;55.00;;;;;;5016446;28;20103;-37
2021/07/18 10:03:23;;;;;;;12.65;8.63;;;31.60;55.20;;;;;;5016817;28;20034;-37
2021/07/18 10:06:11;;;;;;;10.63;9.05;;;31.70;55.30;;;;;;5017059;28;20025;-41
2021/07/18 10:08:43;;;;;;;10.88;9.57;;;31.80;54.60;;;;;;5015314;28;20422;-41
2021/07/18 10:11:14;;;;;;;11.35;8.82;;;31.80;54.30;;;;;;5013954;28;20030;-41
2021/07/18 10:13:42;;;;;;;10.65;8.35;;;31.80;54.00;;;;;;5014307;28;20076;-40
2021/07/18 10:16:08;;;;;;;11.75;8.68;;;31.80;54.30;;;;;;5016893;28;20088;-40
2021/07/18 10:18:38;;;;;;;11.02;8.10;;;31.90;54.00;;;;;;5016287;28;20056;-40
2021/07/18 10:21:09;;;;;;;8.90;8.00;;;31.90;53.70;;;;;;5016390;28;20076;-41
2021/07/18 10:23:38;;;;;;;13.05;10.00;;;32.00;53.60;;;;;;5015752;28;20056;-40
2021/07/18 10:26:03;;;;;;;8.80;7.88;;;32.00;53.20;;;;;;5014533;28;20033;-41
2021/07/18 10:28:29;;;;;;;10.38;7.78;;;32.10;53.50;;;;;;5015063;28;20106;-41
2021/07/18 10:31:04;;;;;;;9.57;8.13;;;32.10;52.40;;;;;;5013067;28;20413;-41
2021/07/18 10:33:31;;;;;;;9.50;7.88;;;32.20;53.00;;;;;;5008024;28;20046;-41
2021/07/18 10:35:57;;;;;;;9.95;7.28;;;32.30;53.70;;;;;;5016132;28;20064;-40
2021/07/18 10:38:25;;;;;;;14.20;11.05;;;32.40;53.80;;;;;;5011480;28;20030;-40
2021/07/18 10:40:56;;;;;;;11.43;9.10;;;32.50;53.60;;;;;;5008067;28;20161;-41
2021/07/18 10:43:41;;;;;;;10.55;8.30;;;32.60;52.80;;;;;;5012669;28;20022;-41
2021/07/18 10:46:09;;;;;;;12.45;8.52;;;32.60;52.80;;;;;;5009824;28;20389;-41
2021/07/18 10:48:52;;;;;;;10.40;8.55;;;32.60;52.70;;;;;;5009448;28;20030;-41
2021/07/18 10:51:34;;;;;;;9.90;7.72;;;32.70;52.70;;;;;;4996995;28;20333;-40
2021/07/18 10:54:17;;;;;;;8.50;7.60;;;32.80;50.70;;;;;;5009797;28;20054;-41
2021/07/18 10:56:47;;;;;;;10.85;8.27;;;32.90;51.60;;;;;;5000878;28;20061;-41
2021/07/18 10:59:35;;;;;;;9.80;7.78;;;33.00;51.20;;;;;;5010355;28;20038;-40
2021/07/18 11:02:10;;;;;;;10.63;8.02;;;33.10;50.70;;;;;;5003675;28;20026;-40
2021/07/18 11:04:54;;;;;;;10.77;8.55;;;33.20;50.60;;;;;;5013900;28;20040;-43
2021/07/18 11:07:20;;;;;;;9.35;7.97;;;33.20;51.30;;;;;;5010551;28;20128;-41
2021/07/18 11:09:47;;;;;;;13.07;8.27;;;33.30;51.00;;;;;;5004803;28;20367;-40
2021/07/18 11:12:31;;;;;;;9.20;7.38;;;33.30;50.60;;;;;;4999087;28;20026;-40
2021/07/18 11:15:15;;;;;;;11.25;8.00;;;33.30;50.50;;;;;;5003857;28;20030;-40
2021/07/18 11:18:08;;;;;;;9.32;7.28;;;33.40;50.00;;;;;;5010924;28;20359;-41
2021/07/18 11:20:46;;;;;;;10.35;7.78;;;33.30;50.50;;;;;;5006125;28;20069;-40
2021/07/18 11:23:13;;;;;;;12.27;7.07;;;33.40;50.00;;;;;;5011970;28;20033;-40
2021/07/18 11:26:05;;;;;;;16.40;8.30;;;33.40;49.70;;;;;;5015224;28;20322;-40
2021/07/18 11:28:35;;;;;;;9.27;7.25;;;33.50;49.40;;;;;;5007880;28;20303;-41
2021/07/18 11:31:10;;;;;;;9.50;7.18;;;33.50;49.30;;;;;;5007772;28;20025;-40
2021/07/18 11:34:05;;;;;;;19.52;8.68;;;33.70;49.00;;;;;;5010215;28;20121;-37
2021/07/18 11:36:31;;;;;;;10.18;7.80;;;33.80;48.80;;;;;;5005701;28;20377;-37
2021/07/18 11:38:58;;;;;;;9.65;7.10;;;33.80;49.00;;;;;;5012976;28;20117;-38
2021/07/18 11:41:28;;;;;;;12.35;7.40;;;34.00;48.70;;;;;;5006349;28;20034;-37
2021/07/18 11:44:03;;;;;;;8.57;7.63;;;34.10;47.70;;;;;;5009647;28;20057;-37
2021/07/18 11:46:34;;;;;;;7.82;6.93;;;34.10;48.20;;;;;;5013671;28;20040;-41
2021/07/18 11:49:03;;;;;;;11.80;8.10;;;34.30;48.00;;;;;;5007561;28;20026;-40
2021/07/18 11:51:29;;;;;;;7.88;7.10;;;34.50;48.00;;;;;;4998026;28;20367;-40
2021/07/18 11:53:57;;;;;;;11.98;7.68;;;34.60;47.70;;;;;;5011779;28;20045;-40
2021/07/18 11:56:35;;;;;;;15.50;7.40;;;34.80;47.80;;;;;;4999694;28;20562;-40
2021/07/18 11:59:02;;;;;;;13.05;8.02;;;34.90;47.10;;;;;;5012508;28;20038;-41
2021/07/18 12:01:29;;;;;;;12.75;7.10;;;35.10;47.80;;;;;;5006627;28;20510;-41
2021/07/18 12:03:55;;;;;;;7.82;6.45;;;35.20;47.90;;;;;;5013407;28;20053;-37
2021/07/18 12:06:23;;;;;;;8.25;7.45;;;35.40;47.60;;;;;;5015134;28;20026;-37
2021/07/18 12:08:49;;;;;;;9.45;6.85;;;35.50;47.30;;;;;;5014621;28;20069;-41
2021/07/18 12:11:25;;;;;;;7.72;6.60;;;35.70;47.10;;;;;;5016302;28;20026;-41
2021/07/18 12:13:53;;;;;;;8.38;7.00;;;36.00;47.00;;;;;;5016348;28;20484;-41
2021/07/18 12:16:20;;;;;;;8.15;7.10;;;36.10;46.30;;;;;;5016649;28;20062;-41
2021/07/18 12:18:47;;;;;;;9.63;6.90;;;36.30;45.90;;;;;;5015403;28;20529;-40
2021/07/18 12:21:25;;;;;;;9.18;6.78;;;36.50;44.50;;;;;;5017397;28;20275;-37
2021/07/18 12:24:10;;;;;;;7.70;6.72;;;36.70;42.80;;;;;;5017189;28;20056;-41
2021/07/18 12:26:36;;;;;;;8.48;6.43;;;36.80;43.70;;;;;;5017116;28;20080;-37
2021/07/18 12:29:07;;;;;;;7.38;6.32;;;37.00;44.00;;;;;;5016773;28;20025;-37
2021/07/18 12:31:33;;;;;;;8.75;6.78;;;37.20;43.90;;;;;;5017064;28;20061;-40
2021/07/18 12:33:59;;;;;;;8.77;6.90;;;37.30;43.40;;;;;;5017740;28;20136;-41
2021/07/18 12:36:24;;;;;;;8.05;6.75;;;37.40;43.30;;;;;;5018724;28;20037;-41
2021/07/18 12:38:50;;;;;;;7.40;6.70;;;37.60;43.20;;;;;;5018156;28;20038;-37
2021/07/18 12:41:16;;;;;;;8.48;6.90;;;37.70;43.40;;;;;;5018754;28;20026;-39
2021/07/18 12:43:42;;;;;;;8.23;7.03;;;37.80;42.30;;;;;;5018795;28;20050;-40
2021/07/18 12:46:11;;;;;;;7.40;6.68;;;37.80;41.70;;;;;;5018484;28;20030;-40
2021/07/18 12:48:37;;;;;;;10.93;6.88;;;37.90;42.00;;;;;;5018542;28;20045;-40
2021/07/18 12:51:17;;;;;;;8.38;6.88;;;38.00;42.00;;;;;;5018663;28;20087;-39
2021/07/18 12:53:43;;;;;;;8.90;7.05;;;38.20;42.00;;;;;;5018532;28;20037;-40
2021/07/18 12:56:09;;;;;;;9.23;7.13;;;38.20;41.60;;;;;;5018538;28;20030;-37
2021/07/18 12:58:42;;;;;;;9.60;7.25;;;38.30;41.10;;;;;;5016831;28;20318;-39
2021/07/18 13:01:10;;;;;;;7.25;6.55;;;38.40;41.20;;;;;;5018083;28;20038;-37
2021/07/18 13:03:48;;;;;;;10.85;6.88;;;38.40;41.40;;;;;;5018130;28;20034;-38
2021/07/18 13:06:21;;;;;;;7.57;6.03;;;38.40;41.20;;;;;;5018034;28;20504;-37
2021/07/18 13:08:49;;;;;;;8.05;6.78;;;38.50;41.50;;;;;;5018074;28;20045;-37
2021/07/18 13:11:41;;;;;;;6.97;6.25;;;38.50;41.60;;;;;;5018252;28;20096;-37
2021/07/18 13:14:28;;;;;;;7.75;6.78;;;38.60;41.20;;;;;;5017940;28;20037;-41
2021/07/18 13:17:20;;;;;;;9.50;6.82;;;38.70;41.20;;;;;;5018188;28;20164;-40
2021/07/18 13:20:00;;;;;;;6.50;5.88;;;38.80;41.30;;;;;;5017522;28;20084;-37
2021/07/18 13:22:35;;;;;;;7.43;6.32;;;38.80;41.20;;;;;;5017762;28;20092;-40
2021/07/18 13:25:15;;;;;;;6.72;6.03;;;38.90;40.60;;;;;;5017325;28;20030;-37
2021/07/18 13:27:41;;;;;;;8.38;6.03;;;38.90;40.80;;;;;;5017891;28;20030;-37
2021/07/18 13:30:09;;;;;;;9.80;6.43;;;39.00;40.60;;;;;;5017253;28;20088;-37
2021/07/18 13:32:45;;;;;;;20.85;7.18;;;39.00;40.70;;;;;;5017581;28;20104;-37
2021/07/18 13:35:18;;;;;;;7.70;6.28;;;39.00;40.60;;;;;;5016107;28;20041;-37
2021/07/18 13:37:59;;;;;;;7.22;6.25;;;39.20;40.70;;;;;;5017321;28;20331;-41
2021/07/18 13:40:30;;;;;;;7.63;6.63;;;39.20;40.30;;;;;;5017619;28;20038;-41
2021/07/18 13:43:21;;;;;;;6.78;6.10;;;39.30;40.40;;;;;;5017602;28;20018;-39
2021/07/18 13:45:55;;;;;;;9.00;6.13;;;39.30;40.50;;;;;;5017706;28;20034;-37
2021/07/18 13:48:32;;;;;;;8.05;6.78;;;39.40;40.20;;;;;;5017011;28;20038;-37
2021/07/18 13:51:00;;;;;;;10.57;6.95;;;39.50;40.60;;;;;;5017382;28;20030;-41
2021/07/18 13:53:26;;;;;;;7.07;6.35;;;39.50;39.40;;;;;;5017234;28;20037;-37
2021/07/18 13:55:52;;;;;;;7.93;6.60;;;39.60;39.80;;;;;;5017314;28;20030;-40
2021/07/18 13:58:18;;;;;;;7.20;6.50;;;39.60;39.60;;;;;;5017172;28;20080;-40
2021/07/18 14:00:46;;;;;;;8.27;7.05;;;39.70;39.60;;;;;;5017184;28;20030;-37
2021/07/18 14:03:12;;;;;;;7.88;6.40;;;39.70;39.70;;;;;;5017230;28;20361;-40
2021/07/18 14:05:38;;;;;;;9.25;6.22;;;39.80;39.40;;;;;;5016961;28;20468;-41
2021/07/18 14:08:08;;;;;;;7.90;6.85;;;39.80;39.40;;;;;;5017207;28;20026;-41
2021/07/18 14:10:34;;;;;;;13.27;6.43;;;39.80;39.50;;;;;;5017137;28;20034;-41
2021/07/18 14:13:00;;;;;;;9.90;6.75;;;39.90;39.50;;;;;;5017159;28;20310;-41
2021/07/18 14:15:25;;;;;;;8.27;6.82;;;39.80;39.50;;;;;;5016953;28;20030;-37
2021/07/18 14:17:51;;;;;;;7.60;6.90;;;39.80;39.60;;;;;;5017116;28;20104;-38
2021/07/18 14:20:28;;;;;;;7.28;6.47;;;39.80;39.70;;;;;;5016784;28;20072;-41
2021/07/18 14:22:55;;;;;;;8.15;6.22;;;39.80;39.80;;;;;;5016843;28;20408;-37
2021/07/18 14:25:22;;;;;;;8.05;6.40;;;39.80;39.90;;;;;;5016779;28;20039;-39
2021/07/18 14:27:51;;;;;;;8.57;6.80;;;39.80;40.00;;;;;;5016899;28;20026;-38
2021/07/18 14:30:19;;;;;;;7.50;6.75;;;39.80;40.10;;;;;;5016533;28;20034;-40
2021/07/18 14:32:46;;;;;;;7.60;6.55;;;39.70;40.30;;;;;;5015736;28;20152;-38
2021/07/18 14:35:12;;;;;;;11.30;7.05;;;39.80;40.20;;;;;;5016465;28;20037;-41
2021/07/18 14:37:40;;;;;;;6.97;6.35;;;39.70;39.90;;;;;;5016691;28;20030;-40
2021/07/18 14:40:08;;;;;;;7.80;7.10;;;39.70;40.00;;;;;;5016085;28;20037;-37
2021/07/18 14:42:34;;;;;;;8.45;6.88;;;39.70;40.00;;;;;;5016239;28;20275;-41
2021/07/18 14:44:59;;;;;;;8.20;6.40;;;39.60;40.20;;;;;;5015932;28;20060;-41
2021/07/18 14:47:25;;;;;;;7.55;6.68;;;39.70;40.50;;;;;;5016438;28;20033;-41
2021/07/18 14:49:51;;;;;;;7.55;6.65;;;39.60;40.40;;;;;;5016160;28;20118;-40
2021/07/18 14:52:17;;;;;;;10.73;7.13;;;39.60;40.40;;;;;;5016142;28;20033;-41
2021/07/18 14:54:42;;;;;;;8.85;7.10;;;39.50;40.50;;;;;;5015789;28;20580;-40
2021/07/18 14:57:08;;;;;;;11.23;6.90;;;39.50;40.40;;;;;;5015989;28;20036;-38
2021/07/18 14:59:34;;;;;;;12.07;8.10;;;39.50;40.10;;;;;;5015488;28;20080;-37
2021/07/18 15:02:01;;;;;;;9.05;6.80;;;39.50;39.60;;;;;;5015865;28;20025;-37
2021/07/18 15:04:27;;;;;;;12.15;7.90;;;39.50;39.90;;;;;;5016042;28;20030;-41
2021/07/18 15:06:53;;;;;;;11.48;8.32;;;39.40;39.20;;;;;;5016169;28;20101;-40
2021/07/18 15:09:19;;;;;;;8.60;7.07;;;39.40;39.00;;;;;;5016136;28;20034;-37
2021/07/18 15:11:45;;;;;;;8.35;7.40;;;39.30;39.40;;;;;;5015773;28;20030;-38
2021/07/18 15:14:10;;;;;;;7.47;6.78;;;39.30;39.90;;;;;;5015830;28;20054;-37
2021/07/18 15:16:36;;;;;;;7.63;6.93;;;39.20;39.90;;;;;;5016228;28;20030;-41
2021/07/18 15:19:02;;;;;;;10.63;6.72;;;39.20;40.70;;;;;;5015697;28;20381;-37
2021/07/18 15:21:28;;;;;;;10.88;7.30;;;39.10;40.30;;;;;;5015658;28;20030;-38
2021/07/18 15:23:54;;;;;;;8.15;6.95;;;39.00;40.00;;;;;;5015720;28;20034;-37
2021/07/18 15:26:20;;;;;;;7.90;7.10;;;38.80;40.50;;;;;;5015601;28;20026;-38
2021/07/18 15:28:47;;;;;;;7.85;7.15;;;38.70;40.80;;;;;;5015568;28;20105;-38
2021/07/18 15:31:13;;;;;;;11.07;7.28;;;38.50;41.00;;;;;;5015856;28;20034;-37
2021/07/18 15:33:39;;;;;;;7.35;6.60;;;38.30;41.20;;;;;;5015089;28;20486;-37
2021/07/18 15:36:05;;;;;;;10.43;7.38;;;38.10;41.70;;;;;;5014411;28;20029;-38
2021/07/18 15:38:31;;;;;;;9.35;8.10;;;37.90;42.10;;;;;;5015820;28;20029;-37
2021/07/18 15:40:58;;;;;;;9.45;7.70;;;37.70;42.40;;;;;;5016138;28;20030;-41
2021/07/18 15:43:25;;;;;;;8.27;7.40;;;37.50;42.80;;;;;;5017980;28;20030;-41
2021/07/18 15:45:54;;;;;;;11.93;8.05;;;37.40;43.10;;;;;;5020138;28;20056;-38
2021/07/18 15:48:19;;;;;;;8.85;7.90;;;37.10;43.20;;;;;;5019577;28;20041;-37
2021/07/18 15:50:45;;;;;;;10.20;7.90;;;36.90;43.70;;;;;;5019669;28;20334;-37
2021/07/18 15:53:11;;;;;;;8.35;7.47;;;36.70;44.00;;;;;;5019728;28;20326;-39
2021/07/18 15:55:37;;;;;;;9.48;7.90;;;36.50;44.60;;;;;;5019452;28;20466;-39
2021/07/18 15:58:02;;;;;;;9.68;8.52;;;36.30;45.00;;;;;;5019374;28;20145;-39
2021/07/18 16:00:28;;;;;;;11.50;8.00;;;36.10;45.50;;;;;;5019163;28;20429;-35
2021/07/18 16:02:54;;;;;;;9.27;8.32;;;35.90;46.20;;;;;;5019368;28;20104;-36
2021/07/18 16:05:21;;;;;;;9.32;8.38;;;35.70;46.90;;;;;;5018963;28;20465;-39
2021/07/18 16:07:47;;;;;;;12.48;7.90;;;35.50;46.90;;;;;;5019270;28;20034;-39
2021/07/18 16:10:14;;;;;;;11.35;9.05;;;35.40;47.50;;;;;;5019056;28;20041;-36
2021/07/18 16:12:40;;;;;;;8.85;7.70;;;35.20;47.60;;;;;;5019487;28;20103;-39
2021/07/18 16:15:08;;;;;;;8.57;7.78;;;35.00;48.00;;;;;;5018925;28;20044;-37
2021/07/18 16:17:34;;;;;;;10.40;8.70;;;34.90;48.50;;;;;;5018487;28;20469;-36
2021/07/18 16:19:59;;;;;;;11.43;8.63;;;34.70;48.70;;;;;;5018796;28;20022;-39
2021/07/18 16:22:26;;;;;;;11.35;8.88;;;34.60;48.70;;;;;;5018725;28;20362;-35
2021/07/18 16:24:52;;;;;;;10.35;9.18;;;34.50;49.00;;;;;;5018429;28;20073;-35
2021/07/18 16:27:18;;;;;;;14.25;8.80;;;34.40;49.10;;;;;;5018907;28;20072;-39
2021/07/18 16:29:43;;;;;;;10.98;8.75;;;34.30;49.50;;;;;;5018536;28;20065;-39
2021/07/18 16:32:09;;;;;;;11.77;9.07;;;34.20;49.70;;;;;;5018663;28;20022;-36
2021/07/18 16:34:35;;;;;;;13.13;9.77;;;34.00;49.90;;;;;;5018377;28;20053;-39
2021/07/18 16:37:01;;;;;;;10.60;9.50;;;34.00;50.20;;;;;;5018998;28;20018;-35
2021/07/18 16:39:29;;;;;;;9.70;8.70;;;33.90;50.30;;;;;;5018779;28;20048;-35
2021/07/18 16:41:56;;;;;;;14.65;8.82;;;33.80;50.70;;;;;;5018619;28;20030;-35
2021/07/18 16:44:23;;;;;;;12.20;9.07;;;33.70;50.90;;;;;;5018134;28;20037;-39
2021/07/18 16:46:49;;;;;;;9.73;8.73;;;33.70;51.50;;;;;;5018949;28;20368;-40
2021/07/18 16:49:15;;;;;;;11.95;9.50;;;33.60;52.20;;;;;;5018638;28;20064;-40
2021/07/18 16:51:40;;;;;;;10.35;9.25;;;33.60;51.70;;;;;;5018495;28;20034;-38
2021/07/18 16:54:06;;;;;;;13.05;9.05;;;33.50;51.80;;;;;;5017411;28;20310;-40
2021/07/18 16:56:32;;;;;;;10.20;9.20;;;33.40;51.90;;;;;;5018480;28;20036;-38
2021/07/18 16:58:59;;;;;;;9.25;8.30;;;33.40;52.10;;;;;;5017855;28;20036;-36
2021/07/18 17:01:25;;;;;;;10.35;8.60;;;33.40;52.30;;;;;;5018278;28;20318;-40
2021/07/18 17:03:50;;;;;;;11.93;9.10;;;33.30;52.60;;;;;;5018092;28;20037;-36
2021/07/18 17:06:16;;;;;;;9.35;8.35;;;33.20;53.20;;;;;;5018196;28;20373;-36
2021/07/18 17:08:42;;;;;;;13.60;9.52;;;33.20;53.20;;;;;;5017668;28;20038;-40
2021/07/18 17:11:08;;;;;;;9.45;8.55;;;33.10;53.50;;;;;;5018196;28;20084;-40
2021/07/18 17:13:35;;;;;;;13.35;8.05;;;33.10;53.70;;;;;;5017973;28;20030;-37
2021/07/18 17:16:01;;;;;;;12.25;9.18;;;33.00;53.90;;;;;;5017916;28;20034;-40
2021/07/18 17:18:27;;;;;;;10.35;9.25;;;32.90;54.50;;;;;;5017839;28;20084;-36
2021/07/18 17:20:52;;;;;;;10.20;8.82;;;32.80;54.80;;;;;;5017942;28;20030;-39
2021/07/18 17:23:18;;;;;;;9.95;8.73;;;32.80;55.30;;;;;;5017518;28;20026;-40
2021/07/18 17:25:44;;;;;;;10.20;9.05;;;32.70;55.40;;;;;;5017779;28;20022;-37
2021/07/18 17:28:10;;;;;;;9.75;8.85;;;32.60;55.50;;;;;;5017710;28;20040;-36
2021/07/18 17:30:36;;;;;;;10.95;8.77;;;32.60;55.30;;;;;;5017741;28;20434;-37
2021/07/18 17:33:02;;;;;;;13.40;9.27;;;32.50;55.70;;;;;;5017531;28;20038;-40
2021/07/18 17:35:28;;;;;;;10.90;9.52;;;32.40;56.40;;;;;;5017397;28;20034;-36
2021/07/18 17:37:54;;;;;;;11.80;9.38;;;32.40;56.70;;;;;;5017435;28;20030;-36
2021/07/18 17:40:20;;;;;;;11.85;9.35;;;32.30;56.80;;;;;;5017149;28;20128;-36
2021/07/18 17:42:46;;;;;;;10.40;9.40;;;32.20;56.90;;;;;;5017312;28;20373;-39
2021/07/18 17:45:12;;;;;;;12.13;10.38;;;32.10;57.30;;;;;;5017302;28;20030;-36
2021/07/18 17:47:38;;;;;;;11.65;10.20;;;32.00;57.40;;;;;;5017711;28;20030;-38
2021/07/18 17:50:10;;;;;;;13.00;10.20;;;32.00;57.80;;;;;;5017175;28;20037;-36
2021/07/18 17:52:37;;;;;;;18.30;12.77;;;31.90;58.00;;;;;;5017549;28;20025;-36
2021/07/18 17:55:05;;;;;;;17.45;12.63;;;31.80;58.00;;;;;;5016819;28;20089;-40
2021/07/18 17:57:31;;;;;;;17.83;11.18;;;31.70;58.30;;;;;;5017053;28;20087;-40
2021/07/18 17:59:57;;;;;;;18.13;12.35;;;31.70;58.60;;;;;;5015060;28;20345;-36
2021/07/18 18:02:22;;;;;;;22.73;12.80;;;31.60;59.10;;;;;;5017084;28;20041;-40
2021/07/18 18:04:48;;;;;;;19.70;12.18;;;31.50;59.30;;;;;;5016750;28;20438;-40
2021/07/18 18:07:14;;;;;;;20.10;12.55;;;31.40;59.60;;;;;;5015850;28;20030;-40
2021/07/18 18:09:40;;;;;;;21.27;13.23;;;31.40;59.80;;;;;;5016662;28;20080;-36
2021/07/18 18:12:06;;;;;;;18.27;13.48;;;31.30;59.80;;;;;;5017065;28;20029;-40
2021/07/18 18:14:32;;;;;;;23.45;12.55;;;31.30;60.20;;;;;;5016552;28;20021;-40
2021/07/18 18:16:59;;;;;;;22.80;13.32;;;31.20;60.50;;;;;;5016973;28;20108;-40
2021/07/18 18:19:26;;;;;;;27.63;14.63;;;31.10;60.50;;;;;;5016823;28;20038;-39